createdAt,value
2017-12-25T00:14:50.725Z,3.40
2017-12-25T00:34:38.716Z,3.05
2017-12-25T00:37:06.263Z,2.60
2017-12-25T00:39:34.451Z,2.53
2017-12-25T00:42:02.771Z,2.65
2017-12-25T00:44:30.297Z,2.00
2017-12-25T00:46:58.630Z,1.90
2017-12-25T00:49:26.173Z,1.70
2017-12-25T01:09:11.023Z,0.80
2017-12-25T01:11:39.320Z,0.70
2017-12-25T01:14:06.832Z,0.90
2017-12-25T01:16:34.359Z,0.80
2017-12-25T01:19:01.871Z,1.15
2017-12-25T01:21:30.147Z,0.70
2017-12-25T01:23:58.456Z,1.90
2017-12-25T01:26:25.985Z,0.80
2017-12-25T01:28:54.299Z,2.03
2017-12-25T01:48:42.439Z,0.70
2017-12-25T01:51:09.971Z,0.70
2017-12-25T01:53:40.061Z,0.60
2017-12-25T01:56:12.403Z,1.87
2017-12-25T02:15:56.452Z,1.23
2017-12-25T02:35:41.339Z,2.15
2017-12-25T02:38:08.850Z,1.58
2017-12-25T02:40:37.156Z,1.70
2017-12-25T02:43:04.703Z,1.12
2017-12-25T03:02:52.784Z,1.67
2017-12-25T03:22:41.020Z,2.00
2017-12-25T03:25:08.551Z,1.60
2017-12-25T03:27:36.059Z,1.70
2017-12-25T03:30:03.590Z,1.37
2017-12-25T03:32:31.121Z,1.50
2017-12-25T03:34:58.682Z,1.30
2017-12-25T03:37:26.194Z,1.20
2017-12-25T03:39:53.720Z,1.20
2017-12-25T03:42:21.987Z,1.40
2017-12-25T03:44:50.327Z,1.10
2017-12-25T03:47:17.848Z,1.20
2017-12-25T03:49:45.358Z,1.15
2017-12-25T03:52:12.893Z,0.93
2017-12-25T03:54:40.430Z,1.00
2017-12-25T03:57:07.975Z,1.30
2017-12-25T03:59:35.529Z,1.00
2017-12-25T04:02:03.822Z,1.10
2017-12-25T04:04:32.129Z,1.75
2017-12-25T04:06:59.655Z,1.08
2017-12-25T04:09:27.948Z,1.05
2017-12-25T04:11:55.512Z,1.30
2017-12-25T04:14:23.039Z,1.08
2017-12-25T04:16:50.565Z,1.17
2017-12-25T04:19:18.090Z,5.47
2017-12-25T04:21:45.622Z,1.10
2017-12-25T04:24:13.767Z,1.08
2017-12-25T04:26:42.111Z,1.35
2017-12-25T04:29:09.621Z,1.35
2017-12-25T04:31:37.908Z,1.40
2017-12-25T04:34:05.468Z,2.00
2017-12-25T04:36:32.981Z,2.22
2017-12-25T04:39:00.509Z,3.33
2017-12-25T04:41:28.131Z,3.87
2017-12-25T04:43:56.449Z,2.65
2017-12-25T04:46:24.014Z,3.45
2017-12-25T04:48:51.534Z,4.25
2017-12-25T04:51:19.044Z,3.80
2017-12-25T04:53:46.573Z,3.60
2017-12-25T04:56:14.098Z,2.50
2017-12-25T04:58:42.420Z,3.50
2017-12-25T05:01:09.944Z,3.22
2017-12-25T05:03:37.473Z,3.35
2017-12-25T05:06:04.994Z,4.22
2017-12-25T05:08:32.530Z,3.50
2017-12-25T05:11:00.039Z,4.50
2017-12-25T05:13:27.584Z,6.12
2017-12-25T05:15:55.103Z,7.30
2017-12-25T05:18:22.619Z,10.00
2017-12-25T05:20:50.141Z,6.90
2017-12-25T05:23:17.659Z,6.40
2017-12-25T05:25:45.966Z,7.55
2017-12-25T05:28:13.488Z,6.87
2017-12-25T05:30:41.794Z,8.15
2017-12-25T05:33:09.312Z,9.02
2017-12-25T05:35:36.860Z,8.75
2017-12-25T05:38:04.407Z,9.35
2017-12-25T05:40:31.974Z,10.57
2017-12-25T05:42:59.512Z,10.60
2017-12-25T05:45:27.044Z,11.12
2017-12-25T05:47:54.620Z,11.43
2017-12-25T05:50:22.914Z,11.52
2017-12-25T05:52:50.454Z,11.12
2017-12-25T05:55:17.988Z,14.77
2017-12-25T05:57:45.556Z,14.20
2017-12-25T06:00:13.080Z,14.82
2017-12-25T06:02:40.608Z,12.75
2017-12-25T06:05:08.117Z,19.52
2017-12-25T06:07:35.658Z,13.27
2017-12-25T06:10:03.186Z,14.23
2017-12-25T06:12:30.763Z,13.02
2017-12-25T06:14:58.299Z,16.05
2017-12-25T06:17:25.847Z,14.13
2017-12-25T06:19:53.378Z,14.98
2017-12-25T06:22:20.926Z,12.73
2017-12-25T06:24:48.501Z,14.45
2017-12-25T06:27:16.062Z,12.43
2017-12-25T06:29:43.605Z,19.80
2017-12-25T06:32:11.138Z,12.43
2017-12-25T06:34:38.707Z,16.73
2017-12-25T06:37:06.279Z,13.20
2017-12-25T06:39:33.824Z,16.08
2017-12-25T06:42:01.355Z,14.65
2017-12-25T06:44:28.890Z,16.17
2017-12-25T06:46:56.412Z,13.57
2017-12-25T06:49:24.706Z,16.45
2017-12-25T06:51:52.819Z,13.65
2017-12-25T06:54:20.334Z,13.82
2017-12-25T06:56:47.948Z,13.95
2017-12-25T06:59:15.521Z,14.82
2017-12-25T07:01:43.061Z,15.00
2017-12-25T07:04:10.594Z,15.90
2017-12-25T07:06:38.110Z,13.32
2017-12-25T07:09:05.657Z,14.43
2017-12-25T07:11:33.187Z,15.23
2017-12-25T07:14:00.687Z,17.67
2017-12-25T07:16:29.009Z,19.40
2017-12-25T07:18:56.531Z,26.08
2017-12-25T07:21:24.863Z,19.27
2017-12-25T07:23:52.413Z,17.98
2017-12-25T07:26:19.931Z,19.75
2017-12-25T07:28:47.521Z,18.33
2017-12-25T07:31:15.110Z,20.20
2017-12-25T07:33:42.625Z,20.85
2017-12-25T07:36:10.181Z,18.50
2017-12-25T07:38:37.720Z,17.62
2017-12-25T07:41:06.015Z,17.58
2017-12-25T07:43:33.552Z,19.17
2017-12-25T07:46:01.094Z,25.30
2017-12-25T07:48:28.689Z,19.83
2017-12-25T07:50:56.186Z,22.98
2017-12-25T07:53:23.751Z,20.12
2017-12-25T07:55:51.324Z,25.30
2017-12-25T07:58:18.904Z,22.60
2017-12-25T08:00:47.199Z,19.87
2017-12-25T08:03:15.490Z,21.55
2017-12-25T08:05:43.025Z,20.25
2017-12-25T08:08:11.326Z,23.95
2017-12-25T08:10:38.862Z,20.62
2017-12-25T08:13:07.195Z,17.35
2017-12-25T08:15:34.704Z,22.60
2017-12-25T08:18:03.007Z,18.55
2017-12-25T08:20:30.560Z,19.17
2017-12-25T08:22:58.118Z,28.70
2017-12-25T08:25:26.496Z,51.20
2017-12-25T08:27:54.092Z,46.58
2017-12-25T08:30:21.617Z,25.80
2017-12-25T08:32:49.153Z,89.65
2017-12-25T08:35:17.487Z,144.70
2017-12-25T08:37:45.090Z,21.48
2017-12-25T08:40:12.678Z,30.85
2017-12-25T08:42:40.344Z,23.15
2017-12-25T08:45:07.887Z,134.68
2017-12-25T08:47:35.435Z,35.00
2017-12-25T08:50:03.017Z,40.78
2017-12-25T08:52:30.541Z,171.62
2017-12-25T08:54:58.836Z,38.50
2017-12-25T08:57:26.373Z,20.48
2017-12-25T08:59:54.686Z,19.60
2017-12-25T09:19:40.193Z,21.15
2017-12-25T09:22:07.753Z,23.10
2017-12-25T09:24:35.300Z,21.30
2017-12-25T09:27:03.620Z,23.42
2017-12-25T09:29:31.152Z,21.52
2017-12-25T09:49:18.476Z,27.25
2017-12-25T09:51:46.774Z,26.12
2017-12-25T09:54:14.317Z,21.87
2017-12-25T10:14:02.929Z,20.70
2017-12-25T10:33:51.022Z,24.70
2017-12-25T10:36:19.331Z,23.38
2017-12-25T10:56:04.602Z,21.30
2017-12-25T11:15:48.351Z,23.10
2017-12-25T11:35:34.670Z,25.08
2017-12-25T11:38:02.228Z,21.80
2017-12-25T11:40:29.781Z,26.42
2017-12-25T11:42:57.445Z,26.48
2017-12-25T11:45:25.009Z,40.40
2017-12-25T11:47:52.535Z,52.25
2017-12-25T11:50:20.092Z,34.30
2017-12-25T11:52:47.622Z,22.10
2017-12-25T11:55:15.192Z,21.25
2017-12-25T11:57:42.807Z,26.65
2017-12-25T12:00:10.328Z,21.77
2017-12-25T12:02:37.881Z,22.75
2017-12-25T12:05:05.442Z,24.90
2017-12-25T12:24:52.930Z,19.62
2017-12-25T12:44:38.481Z,20.70
2017-12-25T12:47:06.083Z,22.73
2017-12-25T13:06:58.662Z,20.30
2017-12-25T13:26:43.673Z,17.45
2017-12-25T13:29:11.252Z,20.85
2017-12-25T13:48:57.080Z,20.20
2017-12-25T14:08:43.794Z,20.95
2017-12-25T14:11:11.342Z,21.05
2017-12-25T14:13:38.879Z,20.90
2017-12-25T14:16:06.500Z,20.20
2017-12-25T14:18:34.036Z,21.77
2017-12-25T14:21:01.579Z,21.05
2017-12-25T14:23:29.167Z,21.00
2017-12-25T14:25:56.710Z,19.58
2017-12-25T14:45:43.814Z,19.37
2017-12-25T15:05:28.664Z,22.55
2017-12-25T15:07:56.993Z,21.48
2017-12-25T15:10:24.554Z,27.70
2017-12-25T15:12:52.115Z,25.00
2017-12-25T15:15:19.683Z,23.42
2017-12-25T15:17:47.197Z,25.80
2017-12-25T15:20:14.723Z,23.08
2017-12-25T15:22:42.264Z,27.95
2017-12-25T15:25:09.796Z,26.37
2017-12-25T15:27:38.091Z,25.33
2017-12-25T15:30:05.633Z,25.62
2017-12-25T15:32:33.166Z,27.05
2017-12-25T15:35:00.713Z,36.65
2017-12-25T15:54:47.270Z,30.92
2017-12-25T15:57:15.586Z,34.78
2017-12-25T15:59:43.109Z,39.00
2017-12-25T16:02:10.655Z,41.22
2017-12-25T16:04:38.196Z,39.42
2017-12-25T16:44:38.231Z,34.03
2017-12-25T16:47:05.772Z,41.10
2017-12-25T17:06:52.461Z,35.28
2017-12-25T17:09:20.770Z,40.33
2017-12-25T17:11:48.304Z,34.80
2017-12-25T17:14:16.723Z,45.25
2017-12-25T17:16:51.480Z,38.20
2017-12-25T17:19:21.256Z,33.85
2017-12-25T17:39:07.331Z,25.62
2017-12-25T17:41:34.864Z,54.15
2017-12-25T17:44:02.412Z,32.58
2017-12-25T17:46:29.928Z,26.02
2017-12-25T18:06:14.626Z,26.92
2017-12-25T18:08:42.189Z,23.80
2017-12-25T18:11:10.523Z,25.23
2017-12-25T18:30:57.224Z,22.45
2017-12-25T18:33:24.785Z,28.60
2017-12-25T18:53:11.090Z,28.50
2017-12-25T18:55:38.619Z,27.23
2017-12-25T18:58:06.949Z,26.25
2017-12-25T19:00:34.464Z,33.28
2017-12-25T19:03:02.773Z,25.50
2017-12-25T19:05:31.048Z,25.95
2017-12-25T19:07:59.375Z,25.17
2017-12-25T19:27:47.016Z,32.58
2017-12-25T19:30:14.882Z,31.15
2017-12-25T19:32:43.024Z,31.30
2017-12-25T19:52:29.901Z,40.15
2017-12-25T20:18:06.014Z,32.95
2017-12-25T20:20:33.844Z,38.42
2017-12-25T20:23:01.417Z,33.72
2017-12-25T20:25:29.056Z,33.70
2017-12-25T20:27:56.992Z,35.55
2017-12-25T20:30:25.025Z,41.00
2017-12-25T20:32:53.703Z,39.30
2017-12-25T20:35:21.848Z,38.60
2017-12-25T20:37:50.166Z,34.70
2017-12-25T20:40:18.600Z,36.50
2017-12-25T22:08:43.859Z,54.97
2017-12-25T22:11:11.377Z,51.85
2017-12-25T22:13:39.660Z,53.17
2017-12-25T22:16:07.937Z,50.88
2017-12-25T22:18:36.355Z,53.55
2017-12-25T22:21:03.873Z,98.45
2017-12-25T22:23:32.176Z,68.07
2017-12-25T22:25:59.697Z,62.50
2017-12-25T22:28:27.980Z,66.97
2017-12-25T22:30:56.265Z,140.10
2017-12-25T22:33:23.934Z,50.97
2017-12-25T22:35:51.486Z,52.28
2017-12-25T22:38:20.858Z,55.28
2017-12-25T22:40:48.375Z,52.55
2017-12-25T22:43:15.892Z,54.75
2017-12-25T22:45:44.173Z,55.92
2017-12-25T22:48:12.450Z,103.12
2017-12-25T22:50:40.740Z,91.93
2017-12-25T22:53:08.293Z,70.22
2017-12-25T22:55:35.826Z,101.82
2017-12-25T22:58:03.344Z,62.15
2017-12-25T23:00:30.861Z,65.28
2017-12-25T23:02:59.129Z,61.05
2017-12-25T23:05:27.424Z,52.85
2017-12-25T23:07:54.943Z,64.40
2017-12-25T23:10:22.617Z,51.22
2017-12-25T23:12:50.129Z,43.97
2017-12-25T23:15:17.657Z,43.17
2017-12-25T23:17:45.184Z,44.63
2017-12-25T23:20:12.741Z,43.00
2017-12-25T23:22:40.251Z,46.13
2017-12-25T23:25:07.792Z,43.38
2017-12-25T23:27:35.316Z,42.45
2017-12-25T23:30:02.867Z,43.28
2017-12-25T23:32:30.405Z,48.50
2017-12-25T23:34:57.981Z,41.08
2017-12-25T23:37:25.536Z,41.53
2017-12-25T23:39:53.072Z,45.83
2017-12-25T23:42:20.593Z,41.42
2017-12-25T23:44:48.970Z,37.78
2017-12-25T23:47:17.259Z,40.88
2017-12-25T23:49:44.788Z,40.78
2017-12-25T23:52:12.308Z,35.53
2017-12-25T23:54:39.845Z,37.95
2017-12-25T23:57:07.383Z,35.83
2017-12-25T23:59:35.668Z,34.50
